SBOSBO JMK / LGMK
Speedbird OnlineSpeedbird Online JMK / LGMK

Mikonos Airport
22:59 20°C

Location Mykonos, Greece
Latitude: 37.43510055541992
Longitude: 25.348100662231445
Web Wikipedia
Altitude 123 Meter / 405 Feet
Distance 2,519 KM / 1,565 Miles
from London.
Time Zone UTC +3 hours (Europe/Athens)
Codes IATA: JMK
ICAO: LGMK
Currency £1 equals EUR 1.12
Runways
RunwayLength (m)Surface
161902Asphalt
341902Asphalt
Radio
TypeDescriptionFrequency
A/GRDO563.7
APPAPP118.75
TWRTWR118.75
Live ATC
METAR LGMK 241920Z /////KT CAVOK 20/10 Q1019
TAF TAF LGMK 241700Z 2418/2503 36010KT 9999 FEW020 TEMPO 2418/2424 36012G22KT
Weather As Of 24 Sep 2022 22:59
Description Clear sky
Wind 25 km/h from North (4°)
Cloud Cover 0%
Precipitation Rain: none, Snow: none
Sunrise 07:07
Sunset 19:13
Lounges CIP Lounge by Goldair, Main Terminal Building
Rotations During the last 90 days there were
124 flights from LHR
73 flights from LCY
12 flights from SOU
124 flights to LHR
73 flights to LCY
5 flights to SOU
1 flights to STN


© 2017-2022 Speedbird Online